createdAt,value
2019-04-10T00:03:37.863Z,99.90
2019-04-10T00:08:44.635Z,99.90
2019-04-10T00:13:51.837Z,99.90
2019-04-10T00:18:59.442Z,99.90
2019-04-10T00:24:06.748Z,99.90
2019-04-10T00:29:14.155Z,99.90
2019-04-10T00:34:21.651Z,99.90
2019-04-10T00:39:28.798Z,99.90
2019-04-10T00:44:35.975Z,99.90
2019-04-10T00:49:44.092Z,99.90
2019-04-10T00:54:51.908Z,99.90
2019-04-10T00:59:59.106Z,99.90
2019-04-10T01:05:06.898Z,99.90
2019-04-10T01:10:15.561Z,99.90
2019-04-10T01:15:23.126Z,99.90
2019-04-10T01:20:31.583Z,99.90
2019-04-10T01:25:38.883Z,99.90
2019-04-10T01:30:46.549Z,99.90
2019-04-10T01:35:54.346Z,99.90
2019-04-10T01:41:01.922Z,99.90
2019-04-10T01:46:09.075Z,99.90
2019-04-10T01:51:17.182Z,99.90
2019-04-10T01:56:30.242Z,99.90
2019-04-10T02:01:40.825Z,99.90
2019-04-10T02:06:49.550Z,99.90
2019-04-10T02:11:56.853Z,99.90
2019-04-10T02:17:04.281Z,99.90
2019-04-10T02:22:11.940Z,99.90
2019-04-10T02:27:20.513Z,99.90
2019-04-10T02:32:28.367Z,99.90
2019-04-10T02:37:35.523Z,99.90
2019-04-10T02:42:43.350Z,99.90
2019-04-10T02:47:53.015Z,99.90
2019-04-10T02:53:01.348Z,99.90
2019-04-10T02:58:09.672Z,99.90
2019-04-10T03:03:18.002Z,99.90
2019-04-10T03:08:43.215Z,99.90
2019-04-10T03:13:35.722Z,99.90
2019-04-10T03:18:43.111Z,99.90
2019-04-10T03:23:50.661Z,99.90
2019-04-10T03:28:59.668Z,99.90
2019-04-10T03:34:22.943Z,99.90
2019-04-10T03:39:34.259Z,99.90
2019-04-10T03:44:40.884Z,99.90
2019-04-10T03:49:48.047Z,99.90
2019-04-10T03:54:55.072Z,99.90
2019-04-10T04:00:02.135Z,99.90
2019-04-10T04:05:10.723Z,99.90
2019-04-10T04:10:18.880Z,99.90
2019-04-10T04:15:26.124Z,99.90
2019-04-10T04:20:33.726Z,99.90
2019-04-10T04:25:40.816Z,99.90
2019-04-10T04:30:50.727Z,99.90
2019-04-10T04:35:56.933Z,99.90
2019-04-10T04:41:04.115Z,99.90
2019-04-10T04:46:12.057Z,99.90
2019-04-10T04:51:20.500Z,99.90
2019-04-10T04:56:28.259Z,99.90
2019-04-10T05:01:36.000Z,99.90
2019-04-10T05:06:43.717Z,99.90
2019-04-10T05:11:53.067Z,99.90
2019-04-10T05:17:00.073Z,99.90
2019-04-10T05:22:08.025Z,99.90
2019-04-10T05:27:16.060Z,99.90
2019-04-10T05:32:23.445Z,99.90
2019-04-10T05:37:31.629Z,99.90
2019-04-10T05:42:39.513Z,99.90
2019-04-10T05:47:46.732Z,99.90
2019-04-10T05:52:55.898Z,99.90
2019-04-10T05:58:03.106Z,99.90
2019-04-10T06:03:10.295Z,99.90
2019-04-10T06:08:18.147Z,99.90
2019-04-10T06:13:25.653Z,99.90
2019-04-10T06:18:33.347Z,99.90
2019-04-10T06:23:41.485Z,99.90
2019-04-10T06:28:48.647Z,99.90
2019-04-10T06:33:56.312Z,99.90
2019-04-10T06:39:06.640Z,99.90
2019-04-10T06:44:14.091Z,99.50
2019-04-10T06:49:21.478Z,99.90
2019-04-10T06:54:28.900Z,99.90
2019-04-10T06:59:37.750Z,99.90
2019-04-10T07:04:51.605Z,99.90
2019-04-10T07:09:56.190Z,99.70
2019-04-10T07:15:05.235Z,99.40
2019-04-10T07:20:17.630Z,98.00
2019-04-10T07:25:23.747Z,95.40
2019-04-10T07:30:31.864Z,98.40
2019-04-10T07:35:40.259Z,96.60
2019-04-10T07:40:49.022Z,96.20
2019-04-10T07:45:56.942Z,95.20
2019-04-10T07:51:04.898Z,92.60
2019-04-10T07:56:17.459Z,91.00
2019-04-10T08:01:22.222Z,90.80
2019-04-10T08:06:30.103Z,94.80
2019-04-10T08:11:38.152Z,86.00
2019-04-10T08:16:45.535Z,92.20
2019-04-10T08:21:53.191Z,91.10
2019-04-10T08:27:01.198Z,86.80
2019-04-10T08:32:09.893Z,81.90
2019-04-10T08:37:17.361Z,79.20
2019-04-10T08:42:25.201Z,80.50
2019-04-10T08:47:33.394Z,82.90
2019-04-10T08:52:41.103Z,77.30
2019-04-10T08:57:48.477Z,74.70
2019-04-10T09:02:55.575Z,69.50
2019-04-10T09:08:04.427Z,71.00
2019-04-10T09:13:12.510Z,71.80
2019-04-10T09:18:19.653Z,73.00
2019-04-10T09:23:37.380Z,76.00
2019-04-10T09:28:35.332Z,75.80
2019-04-10T09:33:43.244Z,76.80
2019-04-10T09:38:50.755Z,76.00
2019-04-10T09:43:58.322Z,77.20
2019-04-10T09:49:06.989Z,76.80
2019-04-10T09:54:14.104Z,75.60
2019-04-10T09:59:31.303Z,74.50
2019-04-10T10:04:29.955Z,70.00
2019-04-10T10:09:37.048Z,69.20
2019-04-10T10:14:44.326Z,63.30
2019-04-10T10:19:53.554Z,59.90
2019-04-10T10:25:00.130Z,62.90
2019-04-10T10:30:09.245Z,68.00
2019-04-10T10:35:16.796Z,71.60
2019-04-10T10:40:24.160Z,74.20
2019-04-10T10:45:32.898Z,77.00
2019-04-10T10:50:41.606Z,77.20
2019-04-10T10:55:49.703Z,78.10
2019-04-10T11:00:57.727Z,70.20
2019-04-10T11:06:06.680Z,71.00
2019-04-10T11:11:14.456Z,63.60
2019-04-10T11:16:23.134Z,62.00
2019-04-10T11:21:30.359Z,60.80
2019-04-10T11:26:37.684Z,55.60
2019-04-10T11:31:45.799Z,53.40
2019-04-10T11:42:02.426Z,52.00
2019-04-10T11:47:10.519Z,50.10
2019-04-10T11:52:24.420Z,51.90
2019-04-10T11:57:30.153Z,53.10
2019-04-10T12:02:36.946Z,55.00
2019-04-10T12:12:52.868Z,56.00
2019-04-10T12:18:00.287Z,56.40
2019-04-10T12:23:08.365Z,56.20
2019-04-10T12:28:15.875Z,57.20
2019-04-10T12:33:23.384Z,57.80
2019-04-10T12:38:31.806Z,58.50
2019-04-10T12:43:40.992Z,56.20
2019-04-10T12:48:48.460Z,53.70
2019-04-10T12:53:56.164Z,52.10
2019-04-10T12:59:03.467Z,53.10
2019-04-10T13:04:11.767Z,51.20
2019-04-10T13:09:19.862Z,52.00
2019-04-10T13:14:27.061Z,51.90
2019-04-10T13:19:35.729Z,53.70
2019-04-10T13:24:43.787Z,54.10
2019-04-10T13:29:52.195Z,54.00
2019-04-10T13:34:59.784Z,53.10
2019-04-10T13:40:08.829Z,51.60
2019-04-10T13:45:17.832Z,51.70
2019-04-10T13:50:25.027Z,51.10
2019-04-10T13:55:32.669Z,49.80
2019-04-10T14:00:42.853Z,51.70
2019-04-10T14:05:50.524Z,50.60
2019-04-10T14:10:58.498Z,51.20
2019-04-10T14:16:06.561Z,48.80
2019-04-10T14:21:15.731Z,48.40
2019-04-10T14:26:43.975Z,46.10
2019-04-10T14:32:00.783Z,44.80
2019-04-10T14:37:11.514Z,43.70
2019-04-10T14:42:19.560Z,44.50
2019-04-10T14:47:27.616Z,46.70
2019-04-10T14:52:35.017Z,45.50
2019-04-10T14:57:43.267Z,44.20
2019-04-10T15:02:50.701Z,43.50
2019-04-10T15:07:57.968Z,44.20
2019-04-10T15:13:11.296Z,47.30
2019-04-10T15:18:15.010Z,49.30
2019-04-10T15:23:22.432Z,51.00
2019-04-10T15:28:29.712Z,50.30
2019-04-10T15:33:37.265Z,43.80
2019-04-10T15:38:44.430Z,38.80
2019-04-10T15:43:51.740Z,35.10
2019-04-10T15:48:58.964Z,34.50
2019-04-10T15:54:06.175Z,36.30
2019-04-10T15:59:14.228Z,40.80
2019-04-10T16:04:21.563Z,43.00
2019-04-10T16:09:30.172Z,39.20
2019-04-10T16:14:38.087Z,35.20
2019-04-10T16:19:56.138Z,34.70
2019-04-10T16:25:31.023Z,36.00
2019-04-10T16:30:39.349Z,37.00
2019-04-10T16:35:46.569Z,38.80
2019-04-10T16:40:54.285Z,40.40
2019-04-10T16:46:01.379Z,40.10
2019-04-10T16:51:08.539Z,41.10
2019-04-10T16:56:15.757Z,45.00
2019-04-10T17:01:22.906Z,44.90
2019-04-10T17:06:30.317Z,45.10
2019-04-10T17:11:38.837Z,45.70
2019-04-10T17:16:46.145Z,51.20
2019-04-10T17:21:54.292Z,55.80
2019-04-10T17:27:01.686Z,60.90
2019-04-10T17:32:10.976Z,73.70
2019-04-10T17:37:18.529Z,89.10
2019-04-10T17:42:25.541Z,93.50
2019-04-10T17:47:33.419Z,96.60
2019-04-10T17:52:40.864Z,98.80
2019-04-10T17:57:48.895Z,99.90
2019-04-10T18:02:57.071Z,99.90
2019-04-10T18:08:05.121Z,99.90
2019-04-10T18:13:13.406Z,99.90
2019-04-10T18:18:21.934Z,99.90
2019-04-10T18:23:29.363Z,99.90
2019-04-10T18:28:36.571Z,99.90
2019-04-10T18:33:44.860Z,99.90
2019-04-10T18:38:52.671Z,99.90
2019-04-10T18:44:00.536Z,99.90
2019-04-10T18:49:07.939Z,99.90
2019-04-10T18:54:15.093Z,99.90
2019-04-10T18:59:46.988Z,99.90
2019-04-10T19:05:00.205Z,99.90
2019-04-10T19:10:08.204Z,99.90
2019-04-10T19:15:16.965Z,99.90
2019-04-10T19:20:24.882Z,99.90
2019-04-10T19:25:34.648Z,99.90
2019-04-10T19:30:45.677Z,99.90
2019-04-10T19:35:53.102Z,99.90
2019-04-10T19:41:04.852Z,99.90
2019-04-10T19:46:12.458Z,99.90
2019-04-10T19:51:19.618Z,99.90
2019-04-10T19:56:26.796Z,99.90
2019-04-10T20:01:34.037Z,99.90
2019-04-10T20:06:42.583Z,99.90
2019-04-10T20:11:53.087Z,99.90
2019-04-10T20:16:59.660Z,99.90
2019-04-10T20:22:08.401Z,99.90
2019-04-10T20:27:16.235Z,99.90
2019-04-10T20:32:23.338Z,99.90
2019-04-10T20:37:31.116Z,99.90
2019-04-10T20:42:38.332Z,99.90
2019-04-10T20:47:45.474Z,99.90
2019-04-10T20:52:53.623Z,99.90
2019-04-10T20:58:06.546Z,99.90
2019-04-10T21:03:13.912Z,99.90
2019-04-10T21:08:21.992Z,99.90
2019-04-10T21:13:29.912Z,99.90
2019-04-10T21:18:37.743Z,99.90
2019-04-10T21:23:46.482Z,99.90
2019-04-10T21:28:53.755Z,99.90
2019-04-10T21:34:12.077Z,99.90
2019-04-10T21:39:19.163Z,99.90
2019-04-10T21:44:26.698Z,99.90
2019-04-10T21:49:33.845Z,99.90
2019-04-10T21:54:49.496Z,99.90
2019-04-10T21:59:49.709Z,99.90
2019-04-10T22:04:57.476Z,99.90
2019-04-10T22:10:23.873Z,99.90
2019-04-10T22:15:40.065Z,99.90
2019-04-10T22:20:47.967Z,99.90
2019-04-10T22:25:56.780Z,99.90
2019-04-10T22:31:03.806Z,99.90
2019-04-10T22:36:10.871Z,99.90
2019-04-10T22:41:25.363Z,99.90
2019-04-10T22:46:27.875Z,99.90
2019-04-10T22:51:35.598Z,99.90
2019-04-10T22:56:42.857Z,99.90
2019-04-10T23:02:01.382Z,99.90
2019-04-10T23:06:59.737Z,99.90
2019-04-10T23:12:07.879Z,99.90
2019-04-10T23:17:15.149Z,99.90
2019-04-10T23:22:22.530Z,99.90
2019-04-10T23:27:30.155Z,99.90
2019-04-10T23:32:37.518Z,99.90
2019-04-10T23:37:44.642Z,99.90
2019-04-10T23:43:03.831Z,99.90
2019-04-10T23:48:00.587Z,99.90
2019-04-10T23:53:08.617Z,99.90
2019-04-10T23:58:17.980Z,99.90
